createdAt,value
2023-04-25T08:28:36.052Z,37.7
2023-04-25T08:34:29.283Z,37.7
2023-04-25T08:40:34.120Z,37.7
2023-04-25T08:46:29.348Z,37.6
2023-04-25T08:52:21.796Z,37.6
2023-04-25T08:58:16.917Z,37.6
2023-04-25T09:04:11.295Z,46.3
2023-04-25T09:10:07.700Z,43.9
2023-04-25T09:15:44.330Z,42.6
2023-04-25T09:21:46.705Z,52.4
2023-04-25T09:27:38.862Z,52
2023-04-25T09:33:32.017Z,44.4
2023-04-25T09:39:25.702Z,41.8
2023-04-25T09:45:18.057Z,42.2
2023-04-25T09:51:09.723Z,47.4
2023-04-25T09:57:02.365Z,46.5
2023-04-25T10:02:54.656Z,48.6
2023-04-25T10:08:47.249Z,47.2
2023-04-25T10:14:39.702Z,45.3
2023-04-25T10:20:31.946Z,43.6
2023-04-25T10:26:07.907Z,43.5
2023-04-25T10:31:59.993Z,43.1
2023-04-25T10:37:52.094Z,42
2023-04-25T10:43:43.131Z,40.3
2023-04-25T10:49:36.122Z,39.6
2023-04-25T10:55:36.263Z,48
2023-04-25T11:01:43.040Z,48.5
2023-04-25T11:08:04.234Z,47.1
2023-04-25T11:13:59.089Z,47.9
2023-04-25T11:20:09.014Z,50.3
2023-04-25T11:26:00.881Z,46.1
2023-04-25T11:31:54.135Z,44.6
2023-04-25T11:37:46.865Z,43.4
2023-04-25T11:43:49.380Z,43.1
2023-04-25T11:49:48.831Z,47.4
2023-04-25T11:55:38.781Z,46.8
2023-04-25T12:01:39.837Z,46.9
2023-04-25T12:07:50.213Z,45.3
2023-04-25T12:13:41.373Z,44.3
2023-04-25T12:19:02.839Z,43.5
2023-04-25T12:25:00.478Z,42.4
2023-04-25T12:30:59.890Z,40.6
2023-04-25T12:36:55.672Z,38.9
2023-04-25T12:42:32.680Z,38
2023-04-25T12:48:24.888Z,37.4
2023-04-25T12:54:27.416Z,36.8
2023-04-25T13:00:21.941Z,36.3
2023-04-25T13:06:15.952Z,36
2023-04-25T13:12:12.562Z,35.7
2023-04-25T13:18:06.657Z,35.4
2023-04-25T13:23:57.977Z,35.3
2023-04-25T13:29:34.927Z,35.1
2023-04-25T13:34:57.032Z,35
2023-04-25T13:40:34.251Z,34.9
2023-04-25T13:46:47.641Z,34.8
2023-04-25T13:52:52.943Z,34.7
2023-04-25T13:58:30.177Z,34.6
2023-04-25T14:04:23.676Z,34.2
2023-04-25T14:10:15.287Z,33.9
2023-04-25T14:16:06.423Z,33.8
2023-04-25T14:21:43.605Z,33.6
2023-04-25T14:27:35.405Z,33.4
2023-04-25T14:33:26.194Z,33.3
2023-04-25T14:39:03.056Z,33.2
2023-04-25T14:44:40.177Z,33.1
2023-04-25T14:49:45.271Z,33
2023-04-25T14:55:06.522Z,32.9
2023-04-25T15:00:12.270Z,32.8
2023-04-25T15:05:50.632Z,32.8
2023-04-25T15:11:31.040Z,32.7
2023-04-25T15:17:12.054Z,32.6
2023-04-25T15:22:47.444Z,32.6
2023-04-25T15:28:24.745Z,32.5
2023-04-25T15:34:01.734Z,32.4
2023-04-25T15:39:54.641Z,32.3
2023-04-25T15:45:46.829Z,32.3
2023-04-25T15:51:26.498Z,32.4
2023-04-25T15:56:48.113Z,32.4
2023-04-25T16:02:42.409Z,32.4
2023-04-25T16:08:37.492Z,32.4
2023-04-25T16:14:12.626Z,32.5
2023-04-25T16:19:50.139Z,32.5
2023-04-25T16:25:27.533Z,32.4
2023-04-25T16:31:03.455Z,32.4
2023-04-25T16:36:27.820Z,32.4
2023-04-25T16:42:04.792Z,32.4
2023-04-25T16:47:41.025Z,32.4
2023-04-25T16:53:02.222Z,32.3
2023-04-25T16:58:25.143Z,32.3
2023-04-25T17:04:03.454Z,32.3
2023-04-25T17:09:56.058Z,32.1
2023-04-25T17:15:42.264Z,32.1
2023-04-25T17:26:25.790Z,31.8
2023-04-25T17:31:46.658Z,31.8
2023-04-25T17:36:36.129Z,31.8
2023-04-25T17:42:13.232Z,31.7
2023-04-25T17:47:34.624Z,31.7
2023-04-25T17:52:40.470Z,31.6
2023-04-25T17:58:04.682Z,31.6
2023-04-25T18:03:12.189Z,31.6
2023-04-25T18:08:49.900Z,31.5
2023-04-25T18:14:11.019Z,31.4
2023-04-25T18:19:47.191Z,31.3
2023-04-25T18:25:39.962Z,31.3
2023-04-25T18:31:09.154Z,31.3
2023-04-25T18:36:44.292Z,31.3
2023-04-25T18:43:30.037Z,31.3
2023-04-25T18:49:10.990Z,31.2
2023-04-25T18:54:32.419Z,31.2
2023-04-25T19:00:25.741Z,31.2
2023-04-25T19:06:06.709Z,31.1
2023-04-25T19:11:53.968Z,31.1
2023-04-25T19:17:32.188Z,31.1
2023-04-25T19:23:26.140Z,31.2
2023-04-25T19:29:23.466Z,31.3
2023-04-25T19:35:01.659Z,31.3
2023-04-25T19:40:40.883Z,31.4
2023-04-25T19:46:19.384Z,31.8
2023-04-25T19:51:42.655Z,32.5
2023-04-25T19:57:21.100Z,33.2
2023-04-25T20:02:59.915Z,33.9
2023-04-25T20:08:40.112Z,34.6
2023-04-25T20:14:17.529Z,35.3
2023-04-25T20:19:55.463Z,35.6
2023-04-25T20:25:31.870Z,35.8
2023-04-25T20:31:10.253Z,35.9
2023-04-25T20:37:04.939Z,36
2023-04-25T20:42:56.661Z,36
2023-04-25T20:48:33.180Z,36
2023-04-25T20:54:25.898Z,36.1
2023-04-25T21:00:16.860Z,36.1
2023-04-25T21:05:55.026Z,36.1
2023-04-25T21:11:30.710Z,36.1
2023-04-25T21:17:24.308Z,36.1
2023-04-25T21:23:16.070Z,36.1
2023-04-25T21:28:51.598Z,36
2023-04-25T21:34:44.158Z,36
2023-04-25T21:40:20.823Z,36
2023-04-25T21:46:25.544Z,36
2023-04-25T21:52:03.321Z,35.9
2023-04-25T21:57:39.715Z,35.9
2023-04-25T22:03:32.107Z,35.9
2023-04-25T22:08:54.155Z,35.9
2023-04-25T22:14:27.489Z,35.9
2023-04-25T22:20:04.022Z,35.9
2023-04-25T22:25:40.266Z,35.9
2023-04-25T22:31:31.843Z,35.9
2023-04-25T22:37:22.262Z,35.9
2023-04-25T22:43:13.922Z,35.8
2023-04-25T22:49:06.377Z,35.8
